Terminal Aerodrome Forecast
Issued by NWS

Home | Current Version | Previous Version | Text Only | Print | Product List | Glossary On
Versions: 1 2 3 4 5 6 7 8 9 10 11 12 13 14 15
000
FTUS43 KBIS 170200 AAA
TAFDIK
TAF AMD
KDIK 170206Z 1702/1724 07008KT P6SM OVC025
     FM170700 11012KT P6SM OVC025
     FM171800 15018G26KT P6SM BKN060=

USA.gov is the U.S. government's official web portal to all federal, state and local government web resources and services.